createdAt,value
2017-10-14T00:00:15.357Z,25.40
2017-10-14T00:02:43.952Z,32.07
2017-10-14T00:05:12.263Z,18.03
2017-10-14T00:07:39.821Z,22.20
2017-10-14T00:10:07.300Z,25.17
2017-10-14T00:12:35.573Z,25.00
2017-10-14T00:15:03.837Z,25.83
2017-10-14T00:17:32.089Z,23.60
2017-10-14T00:19:59.569Z,20.83
2017-10-14T00:22:27.137Z,27.77
2017-10-14T00:24:55.410Z,24.43
2017-10-14T00:27:23.654Z,24.13
2017-10-14T00:29:51.137Z,20.23
2017-10-14T00:32:19.408Z,22.90
2017-10-14T00:34:47.722Z,20.47
2017-10-14T00:37:15.188Z,24.60
2017-10-14T00:39:42.662Z,20.63
2017-10-14T00:42:10.172Z,28.37
2017-10-14T00:44:37.641Z,21.13
2017-10-14T00:47:05.106Z,20.17
2017-10-14T00:49:32.611Z,16.77
2017-10-14T00:52:00.177Z,23.17
2017-10-14T00:54:27.690Z,32.07
2017-10-14T00:56:55.158Z,22.20
2017-10-14T00:59:22.909Z,26.17
2017-10-14T01:01:50.413Z,19.10
2017-10-14T01:04:18.154Z,19.70
2017-10-14T01:06:45.645Z,18.63
2017-10-14T01:09:13.874Z,28.07
2017-10-14T01:11:41.502Z,18.97
2017-10-14T01:14:09.084Z,30.33
2017-10-14T01:16:36.588Z,23.53
2017-10-14T01:19:04.105Z,17.63
2017-10-14T01:21:31.865Z,21.97
2017-10-14T01:23:59.384Z,28.77
2017-10-14T01:26:27.039Z,20.33
2017-10-14T01:28:55.321Z,27.07
2017-10-14T01:31:24.327Z,20.73
2017-10-14T01:33:52.746Z,19.50
2017-10-14T01:36:20.226Z,28.77
2017-10-14T01:38:47.699Z,32.00
2017-10-14T01:41:15.941Z,32.67
2017-10-14T01:43:43.424Z,27.20
2017-10-14T01:46:10.977Z,25.60
2017-10-14T01:48:38.494Z,28.07
2017-10-14T01:51:06.002Z,21.67
2017-10-14T01:53:34.267Z,27.93
2017-10-14T01:56:01.754Z,21.10
2017-10-14T01:58:29.990Z,24.00
2017-10-14T02:00:57.471Z,26.57
2017-10-14T02:03:25.694Z,23.73
2017-10-14T02:05:53.222Z,23.73
2017-10-14T02:08:20.676Z,22.77
2017-10-14T02:10:48.213Z,21.00
2017-10-14T02:13:16.443Z,22.67
2017-10-14T02:15:44.014Z,20.43
2017-10-14T02:18:11.477Z,18.83
2017-10-14T02:20:38.968Z,25.00
2017-10-14T02:23:07.285Z,19.80
2017-10-14T02:25:34.754Z,20.53
2017-10-14T02:28:02.226Z,21.87
2017-10-14T02:30:29.689Z,24.83
2017-10-14T02:32:57.161Z,19.40
2017-10-14T02:35:25.397Z,19.00
2017-10-14T02:37:53.003Z,19.57
2017-10-14T02:40:21.239Z,26.00
2017-10-14T02:42:48.820Z,20.70
2017-10-14T02:45:16.289Z,16.93
2017-10-14T02:47:44.541Z,19.23
2017-10-14T02:50:12.009Z,19.90
2017-10-14T02:52:39.486Z,20.93
2017-10-14T02:55:07.737Z,18.80
2017-10-14T02:57:35.207Z,19.40
2017-10-14T03:00:02.757Z,20.83
2017-10-14T03:02:30.233Z,18.40
2017-10-14T03:04:58.480Z,19.27
2017-10-14T03:07:26.048Z,22.90
2017-10-14T03:09:53.524Z,19.77
2017-10-14T03:12:21.752Z,20.83
2017-10-14T03:14:49.232Z,18.70
2017-10-14T03:17:16.681Z,17.60
2017-10-14T03:19:44.151Z,18.80
2017-10-14T03:22:11.719Z,16.70
2017-10-14T03:24:39.986Z,19.63
2017-10-14T03:27:07.455Z,19.70
2017-10-14T03:29:35.725Z,18.87
2017-10-14T03:32:04.035Z,12.93
2017-10-14T03:34:31.514Z,15.47
2017-10-14T03:36:58.986Z,17.83
2017-10-14T03:39:26.447Z,16.90
2017-10-14T03:41:54.017Z,19.03
2017-10-14T03:44:21.577Z,15.50
2017-10-14T03:46:49.153Z,14.83
2017-10-14T03:49:17.391Z,15.70
2017-10-14T03:51:44.870Z,16.60
2017-10-14T03:54:12.381Z,16.50
2017-10-14T03:56:39.849Z,12.77
2017-10-14T03:59:07.331Z,19.83
2017-10-14T04:01:34.805Z,17.53
2017-10-14T04:04:03.075Z,20.23
2017-10-14T04:06:30.584Z,20.43
2017-10-14T04:08:58.084Z,16.63
2017-10-14T04:11:25.647Z,20.33
2017-10-14T04:13:53.192Z,13.03
2017-10-14T04:16:20.767Z,18.40
2017-10-14T04:18:48.336Z,18.43
2017-10-14T04:21:15.809Z,19.03
2017-10-14T04:23:44.046Z,17.03
2017-10-14T04:26:11.513Z,12.00
2017-10-14T04:28:38.977Z,16.37
2017-10-14T04:31:07.213Z,12.43
2017-10-14T04:33:34.690Z,21.70
2017-10-14T04:36:03.670Z,14.57
2017-10-14T04:38:31.138Z,15.40
2017-10-14T04:40:58.718Z,14.10
2017-10-14T04:43:26.261Z,10.67
2017-10-14T04:45:54.419Z,12.90
2017-10-14T04:48:21.881Z,15.53
2017-10-14T04:50:49.358Z,14.50
2017-10-14T04:53:16.831Z,15.43
2017-10-14T04:55:45.071Z,16.63
2017-10-14T04:58:12.536Z,19.07
2017-10-14T05:00:40.776Z,13.17
2017-10-14T05:03:08.328Z,17.43
2017-10-14T05:05:35.802Z,15.33
2017-10-14T05:08:03.268Z,15.30
2017-10-14T05:10:30.749Z,12.63
2017-10-14T05:12:58.225Z,16.67
2017-10-14T05:15:26.482Z,15.50
2017-10-14T05:17:54.035Z,16.43
2017-10-14T05:20:21.506Z,17.87
2017-10-14T05:22:49.750Z,19.50
2017-10-14T05:25:17.316Z,15.47
2017-10-14T05:27:44.889Z,14.83
2017-10-14T05:30:12.443Z,15.90
2017-10-14T05:32:39.915Z,14.37
2017-10-14T05:35:08.171Z,13.37
2017-10-14T05:37:35.842Z,14.80
2017-10-14T05:40:03.307Z,11.17
2017-10-14T05:42:31.550Z,15.80
2017-10-14T05:44:59.030Z,16.13
2017-10-14T05:47:26.519Z,12.70
2017-10-14T05:49:54.758Z,13.87
2017-10-14T05:52:22.219Z,15.93
2017-10-14T05:54:49.694Z,18.00
2017-10-14T05:57:17.944Z,16.70
2017-10-14T05:59:45.457Z,17.67
2017-10-14T06:02:12.934Z,19.80
2017-10-14T06:04:40.422Z,14.70
2017-10-14T06:07:07.887Z,17.43
2017-10-14T06:09:36.134Z,14.80
2017-10-14T06:12:03.610Z,14.57
2017-10-14T06:14:31.080Z,18.00
2017-10-14T06:16:59.441Z,16.97
2017-10-14T06:19:26.910Z,20.37
2017-10-14T06:21:55.175Z,15.10
2017-10-14T06:24:22.698Z,16.57
2017-10-14T06:26:50.181Z,14.53
2017-10-14T06:29:17.657Z,15.17
2017-10-14T06:31:45.905Z,14.97
2017-10-14T06:34:13.506Z,17.57
2017-10-14T06:36:41.753Z,14.07
2017-10-14T06:39:09.233Z,18.30
2017-10-14T06:41:37.469Z,12.47
2017-10-14T06:44:04.932Z,14.00
2017-10-14T06:46:32.388Z,14.17
2017-10-14T06:49:01.395Z,15.40
2017-10-14T06:51:28.861Z,16.40
2017-10-14T06:53:57.179Z,19.23
2017-10-14T06:56:24.685Z,14.53
2017-10-14T06:58:52.240Z,11.90
2017-10-14T07:01:19.704Z,14.93
2017-10-14T07:03:47.953Z,15.20
2017-10-14T07:06:15.417Z,11.07
2017-10-14T07:08:42.977Z,14.53
2017-10-14T07:11:10.454Z,12.83
2017-10-14T07:13:38.717Z,16.70
2017-10-14T07:16:06.194Z,15.33
2017-10-14T07:18:34.430Z,14.10
2017-10-14T07:21:01.913Z,16.37
2017-10-14T07:23:29.390Z,12.57
2017-10-14T07:25:57.624Z,10.63
2017-10-14T07:28:25.101Z,14.10
2017-10-14T07:30:52.574Z,17.13
2017-10-14T07:33:20.821Z,13.43
2017-10-14T07:35:48.396Z,11.77
2017-10-14T07:38:15.883Z,11.80
2017-10-14T07:40:43.374Z,12.80
2017-10-14T07:43:10.852Z,16.23
2017-10-14T07:45:38.318Z,11.47
2017-10-14T07:48:05.841Z,10.63
2017-10-14T07:50:33.314Z,12.17
2017-10-14T07:53:00.809Z,11.70
2017-10-14T07:55:29.062Z,10.17
2017-10-14T07:57:57.342Z,13.90
2017-10-14T08:00:25.617Z,14.33
2017-10-14T08:02:53.135Z,12.10
2017-10-14T08:05:20.614Z,12.70
2017-10-14T08:07:48.345Z,11.90
2017-10-14T08:10:15.858Z,9.03
2017-10-14T08:12:43.490Z,11.20
2017-10-14T08:15:10.964Z,12.13
2017-10-14T08:17:38.431Z,9.60
2017-10-14T08:20:06.002Z,11.07
2017-10-14T08:22:34.263Z,9.47
2017-10-14T08:25:01.817Z,8.30
2017-10-14T08:27:29.365Z,10.13
2017-10-14T08:29:56.821Z,12.50
2017-10-14T08:32:24.343Z,12.13
2017-10-14T08:34:51.851Z,9.20
2017-10-14T08:37:19.335Z,7.13
2017-10-14T08:39:47.582Z,7.97
2017-10-14T08:42:15.796Z,6.70
2017-10-14T08:44:43.275Z,7.43
2017-10-14T08:47:10.739Z,7.27
2017-10-14T08:49:38.207Z,6.10
2017-10-14T08:52:05.669Z,8.83
2017-10-14T08:54:33.131Z,6.50
2017-10-14T08:57:00.753Z,10.30
2017-10-14T08:59:29.237Z,10.20
2017-10-14T09:01:56.733Z,7.13
2017-10-14T09:04:24.298Z,7.83
2017-10-14T09:06:52.540Z,8.60
2017-10-14T09:09:20.009Z,11.97
2017-10-14T09:11:47.477Z,7.90
2017-10-14T09:14:14.928Z,8.63
2017-10-14T09:16:42.490Z,9.40
2017-10-14T09:19:09.954Z,7.17
2017-10-14T09:21:37.412Z,11.40
2017-10-14T09:24:04.873Z,9.10
2017-10-14T09:26:32.336Z,8.27
2017-10-14T09:29:00.566Z,9.90
2017-10-14T09:31:28.030Z,8.70
2017-10-14T09:33:55.510Z,7.47
2017-10-14T09:36:23.009Z,10.40
2017-10-14T09:38:50.478Z,8.10
2017-10-14T09:41:17.986Z,7.13
2017-10-14T09:43:45.539Z,8.83
2017-10-14T09:46:12.997Z,7.40
2017-10-14T09:48:40.456Z,10.37
2017-10-14T09:51:08.682Z,13.73
2017-10-14T09:53:36.144Z,10.60
2017-10-14T09:56:03.613Z,14.20
2017-10-14T09:58:31.068Z,9.77
2017-10-14T10:00:58.611Z,13.03
2017-10-14T10:03:26.099Z,13.37
2017-10-14T10:05:53.604Z,13.43
2017-10-14T10:08:21.838Z,17.40
2017-10-14T10:10:49.306Z,24.10
2017-10-14T10:13:16.776Z,15.00
2017-10-14T10:15:44.234Z,13.83
2017-10-14T10:18:12.504Z,19.23
2017-10-14T10:20:40.735Z,15.80
2017-10-14T10:23:08.208Z,15.70
2017-10-14T10:25:35.675Z,13.97
2017-10-14T10:28:03.137Z,15.43
2017-10-14T10:30:30.688Z,17.20
2017-10-14T10:32:58.270Z,13.47
2017-10-14T10:35:25.811Z,18.80
2017-10-14T10:37:54.169Z,16.80
2017-10-14T10:40:21.664Z,17.73
2017-10-14T10:42:49.158Z,15.90
2017-10-14T10:45:16.697Z,15.90
2017-10-14T10:47:44.165Z,14.83
2017-10-14T10:50:11.677Z,20.80
2017-10-14T10:52:39.234Z,21.53
2017-10-14T10:55:08.209Z,15.40
2017-10-14T10:57:35.668Z,18.77
2017-10-14T11:00:03.132Z,15.73
2017-10-14T11:02:30.600Z,16.63
2017-10-14T11:04:59.568Z,16.63
2017-10-14T11:07:27.138Z,20.37
2017-10-14T11:09:54.660Z,16.27
2017-10-14T11:12:22.129Z,14.90
2017-10-14T11:14:49.638Z,12.97
2017-10-14T11:17:17.876Z,15.20
2017-10-14T11:19:45.335Z,19.10
2017-10-14T11:22:12.864Z,14.60
2017-10-14T11:24:40.378Z,14.60
2017-10-14T11:27:07.862Z,14.97
2017-10-14T11:29:35.402Z,13.07
2017-10-14T11:32:03.648Z,15.27
2017-10-14T11:34:31.122Z,17.60
2017-10-14T11:36:58.573Z,12.67
2017-10-14T11:39:26.811Z,11.67
2017-10-14T11:41:54.334Z,13.33
2017-10-14T11:44:21.813Z,12.60
2017-10-14T11:46:49.321Z,15.00
2017-10-14T11:49:16.790Z,13.87
2017-10-14T11:51:45.009Z,10.80
2017-10-14T11:54:12.512Z,11.67
2017-10-14T11:56:40.072Z,13.70
2017-10-14T11:59:07.626Z,13.20
2017-10-14T12:01:35.082Z,12.87
2017-10-14T12:04:03.313Z,11.83
2017-10-14T12:06:30.787Z,12.73
2017-10-14T12:08:58.240Z,11.90
2017-10-14T12:11:25.714Z,12.90
2017-10-14T12:13:53.190Z,14.77
2017-10-14T12:16:20.651Z,22.97
2017-10-14T12:18:48.920Z,13.67
2017-10-14T12:21:16.414Z,11.07
2017-10-14T12:23:43.891Z,10.93
2017-10-14T12:26:11.362Z,10.10
2017-10-14T12:28:38.816Z,12.57
2017-10-14T12:31:06.377Z,11.63
2017-10-14T12:33:33.858Z,12.03
2017-10-14T12:36:01.421Z,11.10
2017-10-14T12:38:29.632Z,10.57
2017-10-14T12:40:57.097Z,13.07
2017-10-14T12:43:24.564Z,13.47
2017-10-14T12:45:52.062Z,11.23
2017-10-14T12:48:19.517Z,8.90
2017-10-14T12:50:47.759Z,12.73
2017-10-14T12:53:15.234Z,13.53
2017-10-14T12:55:42.694Z,12.47
2017-10-14T12:58:10.170Z,12.43
2017-10-14T13:00:37.727Z,10.23
2017-10-14T13:03:05.215Z,11.73
2017-10-14T13:05:32.689Z,11.40
2017-10-14T13:08:00.302Z,14.40
2017-10-14T13:10:27.759Z,15.13
2017-10-14T13:12:55.225Z,10.50
2017-10-14T13:15:23.526Z,12.27
2017-10-14T13:17:51.044Z,12.93
2017-10-14T13:20:18.514Z,9.90
2017-10-14T13:22:46.745Z,10.80
2017-10-14T13:25:14.230Z,12.80
2017-10-14T13:27:42.466Z,11.33
2017-10-14T13:30:09.928Z,13.47
2017-10-14T13:32:37.380Z,11.70
2017-10-14T13:35:04.845Z,15.80
2017-10-14T13:37:32.316Z,15.13
2017-10-14T13:39:59.781Z,10.93
2017-10-14T13:42:27.241Z,17.50
2017-10-14T13:44:54.709Z,13.30
2017-10-14T13:47:22.191Z,11.50
2017-10-14T13:49:49.678Z,16.17
2017-10-14T13:52:17.142Z,17.87
2017-10-14T13:54:44.612Z,13.80
2017-10-14T13:57:12.206Z,14.50
2017-10-14T13:59:40.446Z,13.30
2017-10-14T14:02:07.932Z,11.10
2017-10-14T14:04:35.433Z,12.43
2017-10-14T14:07:02.921Z,13.17
2017-10-14T14:09:30.385Z,12.80
2017-10-14T14:11:58.619Z,18.07
2017-10-14T14:14:26.112Z,16.70
2017-10-14T14:16:53.580Z,12.73
2017-10-14T14:19:21.962Z,20.30
2017-10-14T14:21:49.436Z,12.27
2017-10-14T14:24:17.696Z,12.90
2017-10-14T14:26:45.182Z,12.20
2017-10-14T14:29:13.410Z,13.93
2017-10-14T14:31:40.882Z,15.50
2017-10-14T14:34:08.369Z,11.03
2017-10-14T14:36:36.610Z,11.20
2017-10-14T14:39:04.074Z,11.07
2017-10-14T14:41:31.526Z,9.17
2017-10-14T14:43:59.008Z,13.93
2017-10-14T14:46:27.242Z,10.57
2017-10-14T14:48:54.826Z,12.20
2017-10-14T14:51:22.339Z,11.13
2017-10-14T14:53:49.987Z,9.33
2017-10-14T14:56:17.474Z,14.23
2017-10-14T14:58:44.968Z,11.57
2017-10-14T15:01:13.204Z,11.83
2017-10-14T15:03:40.684Z,10.37
2017-10-14T15:06:08.447Z,12.10
2017-10-14T15:08:35.946Z,15.83
2017-10-14T15:11:03.566Z,13.53
2017-10-14T15:13:31.050Z,12.77
2017-10-14T15:15:58.535Z,15.03
2017-10-14T15:18:26.087Z,10.90
2017-10-14T15:20:53.653Z,16.07
2017-10-14T15:23:21.192Z,10.80
2017-10-14T15:25:48.717Z,16.63
2017-10-14T15:28:16.176Z,15.67
2017-10-14T15:30:44.419Z,13.17
2017-10-14T15:33:11.897Z,12.50
2017-10-14T15:35:39.374Z,15.20
2017-10-14T15:38:07.606Z,10.97
2017-10-14T15:40:35.091Z,20.40
2017-10-14T15:43:02.561Z,13.53
2017-10-14T15:45:31.028Z,16.70
2017-10-14T15:47:58.493Z,18.00
2017-10-14T15:50:26.728Z,17.20
2017-10-14T15:52:55.190Z,16.97
2017-10-14T15:55:22.703Z,14.23
2017-10-14T15:57:50.172Z,14.10
2017-10-14T16:00:18.465Z,12.93
2017-10-14T16:02:45.945Z,12.87
2017-10-14T16:05:13.429Z,13.40
2017-10-14T16:07:40.903Z,13.20
2017-10-14T16:10:08.360Z,13.60
2017-10-14T16:12:35.825Z,12.13
2017-10-14T16:15:04.073Z,12.73
2017-10-14T16:17:31.645Z,16.20
2017-10-14T16:19:59.205Z,11.70
2017-10-14T16:22:26.668Z,16.03
2017-10-14T16:24:54.144Z,14.33
2017-10-14T16:27:21.687Z,12.40
2017-10-14T16:29:49.932Z,16.53
2017-10-14T16:32:17.401Z,15.50
2017-10-14T16:34:45.639Z,11.33
2017-10-14T16:37:13.147Z,14.90
2017-10-14T16:39:40.751Z,13.17
2017-10-14T16:42:08.239Z,17.53
2017-10-14T16:44:35.761Z,20.60
2017-10-14T16:47:03.235Z,14.63
2017-10-14T16:49:30.705Z,15.30
2017-10-14T16:51:58.192Z,14.33
2017-10-14T16:54:25.710Z,15.63
2017-10-14T16:56:53.189Z,17.10
2017-10-14T16:59:20.757Z,15.20
2017-10-14T17:01:48.313Z,14.80
2017-10-14T17:04:15.778Z,13.30
2017-10-14T17:06:43.245Z,14.37
2017-10-14T17:09:11.492Z,13.60
2017-10-14T17:11:38.961Z,13.90
2017-10-14T17:14:06.452Z,12.80
2017-10-14T17:16:33.955Z,14.70
2017-10-14T17:19:01.505Z,14.80
2017-10-14T17:21:28.986Z,14.27
2017-10-14T17:23:57.221Z,18.67
2017-10-14T17:26:24.741Z,18.00
2017-10-14T17:28:52.978Z,15.43
2017-10-14T17:31:20.549Z,15.20
2017-10-14T17:33:48.782Z,16.07
2017-10-14T17:36:16.261Z,21.50
2017-10-14T17:38:43.854Z,17.93
2017-10-14T17:41:11.453Z,21.90
2017-10-14T17:43:38.928Z,21.73
2017-10-14T17:46:06.409Z,17.63
2017-10-14T17:48:33.879Z,18.37
2017-10-14T17:51:01.518Z,22.10
2017-10-14T17:53:29.002Z,22.00
2017-10-14T17:55:56.459Z,22.40
2017-10-14T17:58:23.994Z,18.20
2017-10-14T18:00:51.452Z,24.83
2017-10-14T18:03:18.917Z,21.53
2017-10-14T18:05:46.467Z,20.27
2017-10-14T18:08:13.930Z,23.13
2017-10-14T18:10:41.399Z,24.60
2017-10-14T18:13:08.867Z,20.63
2017-10-14T18:15:37.129Z,23.83
2017-10-14T18:18:06.113Z,25.47
2017-10-14T18:20:33.668Z,24.60
2017-10-14T18:23:01.243Z,21.33
2017-10-14T18:25:29.468Z,18.67
2017-10-14T18:27:56.974Z,20.17
2017-10-14T18:30:25.205Z,20.27
2017-10-14T18:32:52.705Z,26.13
2017-10-14T18:35:20.957Z,28.40
2017-10-14T18:37:48.506Z,22.03
2017-10-14T18:40:16.046Z,24.33
2017-10-14T18:42:43.569Z,21.57
2017-10-14T18:45:11.798Z,24.93
2017-10-14T18:47:39.259Z,22.60
2017-10-14T18:50:06.743Z,28.07
2017-10-14T18:52:34.218Z,24.17
2017-10-14T18:55:02.470Z,29.90
2017-10-14T18:57:30.023Z,23.73
2017-10-14T18:59:57.553Z,29.77
2017-10-14T19:02:25.109Z,28.70
2017-10-14T19:04:52.582Z,29.73
2017-10-14T19:07:20.062Z,36.90
2017-10-14T19:09:47.513Z,31.23
2017-10-14T19:12:15.073Z,36.73
2017-10-14T19:14:42.552Z,32.33
2017-10-14T19:17:10.791Z,37.67
2017-10-14T19:19:38.260Z,44.20
2017-10-14T19:22:05.826Z,32.40
2017-10-14T19:24:34.070Z,36.73
2017-10-14T19:27:01.542Z,38.40
2017-10-14T19:29:29.019Z,39.80
2017-10-14T19:31:57.267Z,31.47
2017-10-14T19:34:24.929Z,33.60
2017-10-14T19:36:52.404Z,31.53
2017-10-14T19:39:19.871Z,27.80
2017-10-14T19:41:47.337Z,27.37
2017-10-14T19:44:15.557Z,28.63
2017-10-14T19:46:43.057Z,32.17
2017-10-14T19:49:10.520Z,27.13
2017-10-14T19:51:38.748Z,27.20
2017-10-14T19:54:06.213Z,27.50
2017-10-14T19:56:33.752Z,30.80
2017-10-14T19:59:01.222Z,27.20
2017-10-14T20:01:28.807Z,33.23
2017-10-14T20:03:56.285Z,31.27
2017-10-14T20:06:24.568Z,34.00
2017-10-14T20:08:52.819Z,26.83
2017-10-14T20:11:21.100Z,28.40
2017-10-14T20:13:49.349Z,29.30
2017-10-14T20:16:16.812Z,29.23
2017-10-14T20:18:44.291Z,28.57
2017-10-14T20:21:11.900Z,25.83
2017-10-14T20:23:39.369Z,27.33
2017-10-14T20:26:06.842Z,28.03
2017-10-14T20:28:34.318Z,29.00
2017-10-14T20:31:01.867Z,25.10
2017-10-14T20:33:29.382Z,29.33
2017-10-14T20:35:56.851Z,28.70
2017-10-14T20:38:24.323Z,32.00
2017-10-14T20:40:51.812Z,24.60
2017-10-14T20:43:19.303Z,27.33
2017-10-14T20:45:46.773Z,20.40
2017-10-14T20:48:14.240Z,23.07
2017-10-14T20:50:41.709Z,25.47
2017-10-14T20:53:09.169Z,25.50
2017-10-14T20:55:36.642Z,25.30
2017-10-14T20:58:05.614Z,26.40
2017-10-14T21:00:33.152Z,23.93
2017-10-14T21:03:00.611Z,26.20
2017-10-14T21:05:28.077Z,28.40
2017-10-14T21:07:55.538Z,23.17
2017-10-14T21:10:23.012Z,25.90
2017-10-14T21:12:50.477Z,30.30
2017-10-14T21:15:17.955Z,24.80
2017-10-14T21:17:46.239Z,24.03
2017-10-14T21:20:13.741Z,22.80
2017-10-14T21:22:41.217Z,25.10
2017-10-14T21:25:08.680Z,22.50
2017-10-14T21:27:36.241Z,24.90
2017-10-14T21:30:03.714Z,22.57
2017-10-14T21:32:31.958Z,23.03
2017-10-14T21:34:59.441Z,23.87
2017-10-14T21:37:27.682Z,19.20
2017-10-14T21:39:55.201Z,20.43
2017-10-14T21:42:22.671Z,24.47
2017-10-14T21:44:50.138Z,21.47
2017-10-14T21:47:17.684Z,23.50
2017-10-14T21:49:45.154Z,20.83
2017-10-14T21:52:12.748Z,20.30
2017-10-14T21:54:40.974Z,25.07
2017-10-14T21:57:08.453Z,17.73
2017-10-14T21:59:35.954Z,19.13
2017-10-14T22:02:04.199Z,19.50
2017-10-14T22:04:31.765Z,18.60
2017-10-14T22:06:59.326Z,17.40
2017-10-14T22:09:26.813Z,17.93
2017-10-14T22:11:55.114Z,27.17
2017-10-14T22:14:22.602Z,25.60
2017-10-14T22:16:50.185Z,20.30
2017-10-14T22:19:18.433Z,18.53
2017-10-14T22:21:45.930Z,22.43
2017-10-14T22:24:14.169Z,17.70
2017-10-14T22:26:41.754Z,18.70
2017-10-14T22:29:10.080Z,18.50
2017-10-14T22:31:37.563Z,15.37
2017-10-14T22:34:05.028Z,14.43
2017-10-14T22:36:32.530Z,19.37
2017-10-14T22:38:59.993Z,21.33
2017-10-14T22:41:27.472Z,18.93
2017-10-14T22:43:54.965Z,20.47
2017-10-14T22:46:22.469Z,20.50
2017-10-14T22:48:49.974Z,16.07
2017-10-14T22:51:17.462Z,14.80
2017-10-14T22:53:45.694Z,19.03
2017-10-14T22:56:13.166Z,17.03
2017-10-14T22:58:40.678Z,16.60
2017-10-14T23:01:08.148Z,18.97
2017-10-14T23:03:35.664Z,15.70
2017-10-14T23:06:03.931Z,16.17
2017-10-14T23:08:31.434Z,18.07
2017-10-14T23:10:58.961Z,18.80
2017-10-14T23:13:26.438Z,17.80
2017-10-14T23:15:53.965Z,17.67
2017-10-14T23:18:22.296Z,20.77
2017-10-14T23:20:49.770Z,16.83
2017-10-14T23:23:17.498Z,16.67
2017-10-14T23:25:44.971Z,19.33
2017-10-14T23:28:12.444Z,15.13
2017-10-14T23:30:39.921Z,17.73
2017-10-14T23:33:08.349Z,16.40
2017-10-14T23:35:35.833Z,18.73
2017-10-14T23:38:03.318Z,20.50
2017-10-14T23:40:31.570Z,19.60
2017-10-14T23:42:59.154Z,21.60
2017-10-14T23:45:27.421Z,17.87
2017-10-14T23:47:54.986Z,18.30
2017-10-14T23:50:23.232Z,15.30
2017-10-14T23:52:50.710Z,16.10
2017-10-14T23:55:18.180Z,18.63
2017-10-14T23:57:46.453Z,16.97
